sensor_id;sensor_type;location;lat;lon;timestamp;pressure;altitude;pressure_sealevel;temperature;humidity
56042;BME280;48756;41.374;2.066;2022-09-09T00:06:53;100909.81;;;25.24;71.84
56042;BME280;48756;41.374;2.066;2022-09-09T00:09:22;100915.25;;;25.23;72.77
56042;BME280;48756;41.374;2.066;2022-09-09T00:12:00;100905.63;;;25.33;73.77
56042;BME280;48756;41.374;2.066;2022-09-09T00:17:04;100908.75;;;25.27;72.88
56042;BME280;48756;41.374;2.066;2022-09-09T00:19:52;100908.84;;;25.25;72.18
56042;BME280;48756;41.374;2.066;2022-09-09T00:22:20;100908.91;;;24.84;72.78
56042;BME280;48756;41.374;2.066;2022-09-09T00:24:56;100907.16;;;24.70;72.46
56042;BME280;48756;41.374;2.066;2022-09-09T00:30:22;100901.78;;;24.58;72.93
56042;BME280;48756;41.374;2.066;2022-09-09T00:32:52;100906.22;;;24.45;73.43
56042;BME280;48756;41.374;2.066;2022-09-09T00:35:25;100897.84;;;24.36;73.91
56042;BME280;48756;41.374;2.066;2022-09-09T00:38:00;100896.22;;;24.48;74.17
56042;BME280;48756;41.374;2.066;2022-09-09T00:48:11;100889.28;;;24.85;73.63
56042;BME280;48756;41.374;2.066;2022-09-09T00:50:56;100889.28;;;24.85;73.54
56042;BME280;48756;41.374;2.066;2022-09-09T00:56:20;100879.66;;;24.70;74.02
56042;BME280;48756;41.374;2.066;2022-09-09T01:01:36;100888.31;;;24.73;74.66
56042;BME280;48756;41.374;2.066;2022-09-09T01:04:09;100879.25;;;24.76;74.01
56042;BME280;48756;41.374;2.066;2022-09-09T01:06:41;100888.84;;;24.79;73.46
56042;BME280;48756;41.374;2.066;2022-09-09T01:17:20;100880.56;;;24.56;73.85
56042;BME280;48756;41.374;2.066;2022-09-09T01:20:23;100875.56;;;24.37;75.45
56042;BME280;48756;41.374;2.066;2022-09-09T01:28:27;100876.94;;;24.30;76.06
56042;BME280;48756;41.374;2.066;2022-09-09T01:30:54;100871.97;;;24.24;76.71
56042;BME280;48756;41.374;2.066;2022-09-09T01:33:22;100877.09;;;24.27;76.12
56042;BME280;48756;41.374;2.066;2022-09-09T01:35:54;100876.94;;;24.30;75.93
56042;BME280;48756;41.374;2.066;2022-09-09T01:38:22;100868.91;;;24.45;74.68
56042;BME280;48756;41.374;2.066;2022-09-09T01:40:48;100866.16;;;24.46;74.34
56042;BME280;48756;41.374;2.066;2022-09-09T01:43:14;100872.50;;;24.43;74.92
56042;BME280;48756;41.374;2.066;2022-09-09T01:45:41;100870.91;;;24.41;74.42
56042;BME280;48756;41.374;2.066;2022-09-09T01:48:08;100876.91;;;24.45;74.64
56042;BME280;48756;41.374;2.066;2022-09-09T01:50:34;100874.94;;;24.34;74.95
56042;BME280;48756;41.374;2.066;2022-09-09T01:53:01;100878.84;;;24.55;74.31
56042;BME280;48756;41.374;2.066;2022-09-09T02:01:45;100872.97;;;24.50;74.30
56042;BME280;48756;41.374;2.066;2022-09-09T02:07:09;100879.28;;;24.21;73.12
56042;BME280;48756;41.374;2.066;2022-09-09T02:09:36;100881.50;;;24.28;73.06
56042;BME280;48756;41.374;2.066;2022-09-09T02:12:09;100881.66;;;24.25;73.58
56042;BME280;48756;41.374;2.066;2022-09-09T02:14:41;100874.53;;;24.26;73.83
56042;BME280;48756;41.374;2.066;2022-09-09T02:17:14;100880.72;;;24.26;71.96
56042;BME280;48756;41.374;2.066;2022-09-09T02:19:50;100883.22;;;24.29;72.74
56042;BME280;48756;41.374;2.066;2022-09-09T02:22:19;100880.53;;;24.15;71.09
56042;BME280;48756;41.374;2.066;2022-09-09T02:24:49;100877.41;;;24.08;70.05
56042;BME280;48756;41.374;2.066;2022-09-09T02:27:18;100876.09;;;24.01;69.81
56042;BME280;48756;41.374;2.066;2022-09-09T02:29:44;100872.13;;;23.66;69.09
56042;BME280;48756;41.374;2.066;2022-09-09T02:32:15;100881.13;;;23.63;69.36
56042;BME280;48756;41.374;2.066;2022-09-09T02:34:49;100867.59;;;23.52;68.88
56042;BME280;48756;41.374;2.066;2022-09-09T02:37:19;100858.66;;;23.53;68.57
56042;BME280;48756;41.374;2.066;2022-09-09T02:39:46;100854.19;;;23.53;68.66
56042;BME280;48756;41.374;2.066;2022-09-09T02:42:12;100852.44;;;23.68;69.05
56042;BME280;48756;41.374;2.066;2022-09-09T02:44:40;100852.81;;;23.91;68.63
56042;BME280;48756;41.374;2.066;2022-09-09T02:47:26;100851.75;;;23.93;68.80
56042;BME280;48756;41.374;2.066;2022-09-09T02:50:26;100865.91;;;23.94;69.21
56042;BME280;48756;41.374;2.066;2022-09-09T02:53:16;100870.50;;;23.77;69.74
56042;BME280;48756;41.374;2.066;2022-09-09T02:58:10;100870.88;;;23.71;71.42
56042;BME280;48756;41.374;2.066;2022-09-09T03:00:39;100874.59;;;23.83;70.76
56042;BME280;48756;41.374;2.066;2022-09-09T03:03:07;100868.69;;;23.92;70.45
56042;BME280;48756;41.374;2.066;2022-09-09T03:05:36;100872.69;;;23.99;68.23
56042;BME280;48756;41.374;2.066;2022-09-09T03:08:03;100878.81;;;24.14;69.41
56042;BME280;48756;41.374;2.066;2022-09-09T03:10:31;100872.03;;;23.81;65.61
56042;BME280;48756;41.374;2.066;2022-09-09T03:12:56;100864.41;;;23.90;63.96
56042;BME280;48756;41.374;2.066;2022-09-09T03:15:22;100865.34;;;24.03;63.99
56042;BME280;48756;41.374;2.066;2022-09-09T03:17:48;100873.19;;;23.77;62.67
56042;BME280;48756;41.374;2.066;2022-09-09T03:20:14;100864.03;;;23.81;61.94
56042;BME280;48756;41.374;2.066;2022-09-09T03:22:39;100862.88;;;23.71;62.20
56042;BME280;48756;41.374;2.066;2022-09-09T03:25:06;100857.19;;;23.92;61.96
56042;BME280;48756;41.374;2.066;2022-09-09T03:27:32;100862.19;;;23.96;62.80
56042;BME280;48756;41.374;2.066;2022-09-09T03:29:58;100865.34;;;23.89;61.57
56042;BME280;48756;41.374;2.066;2022-09-09T03:32:24;100861.03;;;23.43;62.67
56042;BME280;48756;41.374;2.066;2022-09-09T03:34:51;100868.03;;;23.30;62.35
56042;BME280;48756;41.374;2.066;2022-09-09T03:37:18;100865.66;;;23.11;62.53
56042;BME280;48756;41.374;2.066;2022-09-09T03:39:44;100866.63;;;22.95;62.03
56042;BME280;48756;41.374;2.066;2022-09-09T03:42:12;100865.78;;;22.94;62.09
56042;BME280;48756;41.374;2.066;2022-09-09T03:44:40;100871.47;;;22.88;62.31
56042;BME280;48756;41.374;2.066;2022-09-09T03:47:07;100866.91;;;22.90;61.50
56042;BME280;48756;41.374;2.066;2022-09-09T03:49:33;100869.31;;;22.95;60.25
56042;BME280;48756;41.374;2.066;2022-09-09T03:51:59;100869.41;;;23.07;59.68
56042;BME280;48756;41.374;2.066;2022-09-09T03:54:26;100865.47;;;23.29;58.94
56042;BME280;48756;41.374;2.066;2022-09-09T03:56:52;100865.78;;;23.38;58.52
56042;BME280;48756;41.374;2.066;2022-09-09T03:59:18;100868.72;;;23.48;57.77
56042;BME280;48756;41.374;2.066;2022-09-09T04:01:44;100876.53;;;23.37;57.13
56042;BME280;48756;41.374;2.066;2022-09-09T04:04:10;100867.66;;;23.22;58.27
56042;BME280;48756;41.374;2.066;2022-09-09T04:06:37;100859.44;;;23.41;58.40
56042;BME280;48756;41.374;2.066;2022-09-09T04:09:02;100867.09;;;23.17;58.46
56042;BME280;48756;41.374;2.066;2022-09-09T04:11:28;100862.19;;;22.95;59.65
56042;BME280;48756;41.374;2.066;2022-09-09T04:13:54;100863.03;;;22.80;60.97
56042;BME280;48756;41.374;2.066;2022-09-09T04:16:20;100865.88;;;22.77;61.52
56042;BME280;48756;41.374;2.066;2022-09-09T04:18:45;100869.66;;;22.73;61.89
56042;BME280;48756;41.374;2.066;2022-09-09T04:21:11;100863.66;;;22.85;61.91
56042;BME280;48756;41.374;2.066;2022-09-09T04:23:38;100870.34;;;22.76;62.75
56042;BME280;48756;41.374;2.066;2022-09-09T04:26:04;100866.47;;;22.98;62.56
56042;BME280;48756;41.374;2.066;2022-09-09T04:28:32;100872.59;;;22.68;63.65
56042;BME280;48756;41.374;2.066;2022-09-09T04:31:04;100866.41;;;22.83;63.43
56042;BME280;48756;41.374;2.066;2022-09-09T04:33:30;100865.50;;;22.99;64.00
56042;BME280;48756;41.374;2.066;2022-09-09T04:35:56;100875.53;;;23.09;62.53
56042;BME280;48756;41.374;2.066;2022-09-09T04:38:22;100868.16;;;22.99;62.20
56042;BME280;48756;41.374;2.066;2022-09-09T04:40:49;100870.41;;;23.20;60.94
56042;BME280;48756;41.374;2.066;2022-09-09T04:43:17;100873.28;;;23.46;60.32
56042;BME280;48756;41.374;2.066;2022-09-09T04:45:47;100876.16;;;23.43;59.23
56042;BME280;48756;41.374;2.066;2022-09-09T04:48:13;100875.56;;;23.38;59.01
56042;BME280;48756;41.374;2.066;2022-09-09T04:50:39;100874.00;;;23.19;59.39
56042;BME280;48756;41.374;2.066;2022-09-09T04:53:06;100876.97;;;23.15;59.80
56042;BME280;48756;41.374;2.066;2022-09-09T04:55:32;100879.09;;;23.08;60.30
56042;BME280;48756;41.374;2.066;2022-09-09T04:58:03;100887.69;;;23.28;59.51
56042;BME280;48756;41.374;2.066;2022-09-09T05:00:30;100885.13;;;23.26;58.87
56042;BME280;48756;41.374;2.066;2022-09-09T05:02:55;100891.34;;;23.41;59.03
56042;BME280;48756;41.374;2.066;2022-09-09T05:05:21;100897.63;;;23.10;59.91
56042;BME280;48756;41.374;2.066;2022-09-09T05:07:47;100902.22;;;23.22;60.56
56042;BME280;48756;41.374;2.066;2022-09-09T05:10:13;100902.41;;;23.19;60.79
56042;BME280;48756;41.374;2.066;2022-09-09T05:12:41;100903.69;;;22.82;62.27
56042;BME280;48756;41.374;2.066;2022-09-09T05:15:07;100907.38;;;22.64;63.77
56042;BME280;48756;41.374;2.066;2022-09-09T05:17:33;100909.34;;;22.60;63.50
56042;BME280;48756;41.374;2.066;2022-09-09T05:20:02;100911.41;;;22.23;62.83
56042;BME280;48756;41.374;2.066;2022-09-09T05:22:29;100915.34;;;22.32;61.65
56042;BME280;48756;41.374;2.066;2022-09-09T05:24:55;100911.56;;;22.52;60.59
56042;BME280;48756;41.374;2.066;2022-09-09T05:27:21;100922.63;;;22.44;60.94
56042;BME280;48756;41.374;2.066;2022-09-09T05:29:47;100923.13;;;22.51;61.17
56042;BME280;48756;41.374;2.066;2022-09-09T05:32:15;100928.34;;;22.37;61.88
56042;BME280;48756;41.374;2.066;2022-09-09T05:34:42;100924.25;;;22.47;61.18
56042;BME280;48756;41.374;2.066;2022-09-09T05:37:07;100924.09;;;22.50;60.44
56042;BME280;48756;41.374;2.066;2022-09-09T05:39:33;100922.44;;;22.63;60.95
56042;BME280;48756;41.374;2.066;2022-09-09T05:42:02;100918.88;;;22.64;60.62
56042;BME280;48756;41.374;2.066;2022-09-09T05:44:29;100918.59;;;22.53;61.80
56042;BME280;48756;41.374;2.066;2022-09-09T05:46:54;100923.66;;;22.89;61.39
56042;BME280;48756;41.374;2.066;2022-09-09T05:49:20;100915.69;;;22.89;62.01
56042;BME280;48756;41.374;2.066;2022-09-09T05:51:46;100927.66;;;22.80;62.13
56042;BME280;48756;41.374;2.066;2022-09-09T05:54:13;100926.81;;;22.48;64.15
56042;BME280;48756;41.374;2.066;2022-09-09T05:56:40;100927.66;;;22.33;64.64
56042;BME280;48756;41.374;2.066;2022-09-09T05:59:06;100928.63;;;22.48;64.56
56042;BME280;48756;41.374;2.066;2022-09-09T06:01:34;100930.75;;;22.73;63.94
56042;BME280;48756;41.374;2.066;2022-09-09T06:04:01;100933.75;;;22.51;64.66
56042;BME280;48756;41.374;2.066;2022-09-09T06:06:31;100943.19;;;22.56;64.50
56042;BME280;48756;41.374;2.066;2022-09-09T06:08:57;100938.28;;;22.80;63.19
56042;BME280;48756;41.374;2.066;2022-09-09T06:11:25;100931.63;;;22.57;63.43
56042;BME280;48756;41.374;2.066;2022-09-09T06:13:51;100936.41;;;22.51;62.60
56042;BME280;48756;41.374;2.066;2022-09-09T06:16:21;100932.66;;;22.55;63.12
56042;BME280;48756;41.374;2.066;2022-09-09T06:18:49;100940.34;;;22.59;62.47
56042;BME280;48756;41.374;2.066;2022-09-09T06:21:33;100940.63;;;22.71;61.27
56042;BME280;48756;41.374;2.066;2022-09-09T06:23:59;100931.09;;;22.82;60.12
56042;BME280;48756;41.374;2.066;2022-09-09T06:26:27;100938.91;;;22.54;60.85
56042;BME280;48756;41.374;2.066;2022-09-09T06:28:55;100937.78;;;22.58;61.29
56042;BME280;48756;41.374;2.066;2022-09-09T06:31:24;100942.31;;;22.72;61.23
56042;BME280;48756;41.374;2.066;2022-09-09T06:33:51;100952.00;;;22.73;61.23
56042;BME280;48756;41.374;2.066;2022-09-09T06:36:22;100959.91;;;22.90;60.48
56042;BME280;48756;41.374;2.066;2022-09-09T06:38:48;100958.94;;;23.07;59.87
56042;BME280;48756;41.374;2.066;2022-09-09T06:41:16;100960.81;;;23.05;59.01
56042;BME280;48756;41.374;2.066;2022-09-09T06:43:48;100959.53;;;23.12;59.48
56042;BME280;48756;41.374;2.066;2022-09-09T06:46:18;100959.75;;;23.23;59.02
56042;BME280;48756;41.374;2.066;2022-09-09T06:48:45;100958.41;;;23.46;58.07
56042;BME280;48756;41.374;2.066;2022-09-09T06:51:13;100953.63;;;23.37;56.82
56042;BME280;48756;41.374;2.066;2022-09-09T06:53:40;100954.59;;;23.36;56.60
56042;BME280;48756;41.374;2.066;2022-09-09T06:58:39;100962.31;;;23.85;56.26
56042;BME280;48756;41.374;2.066;2022-09-09T07:01:13;100955.47;;;24.09;54.63
56042;BME280;48756;41.374;2.066;2022-09-09T07:03:40;100956.50;;;24.21;54.42
56042;BME280;48756;41.374;2.066;2022-09-09T07:06:06;100950.63;;;24.16;54.41
56042;BME280;48756;41.374;2.066;2022-09-09T07:08:33;100945.47;;;24.27;54.88
56042;BME280;48756;41.374;2.066;2022-09-09T07:11:06;100949.06;;;24.68;54.62
56042;BME280;48756;41.374;2.066;2022-09-09T07:13:32;100949.00;;;24.41;54.43
56042;BME280;48756;41.374;2.066;2022-09-09T07:16:09;100951.66;;;24.13;55.88
56042;BME280;48756;41.374;2.066;2022-09-09T07:18:36;100952.06;;;24.35;54.86
56042;BME280;48756;41.374;2.066;2022-09-09T07:21:03;100948.13;;;24.82;54.49
56042;BME280;48756;41.374;2.066;2022-09-09T07:23:30;100952.78;;;24.93;54.49
56042;BME280;48756;41.374;2.066;2022-09-09T07:25:57;100944.78;;;25.20;53.31
56042;BME280;48756;41.374;2.066;2022-09-09T07:28:23;100940.41;;;25.19;53.55
56042;BME280;48756;41.374;2.066;2022-09-09T07:30:56;100945.25;;;25.39;53.21
56042;BME280;48756;41.374;2.066;2022-09-09T07:33:23;100943.41;;;25.27;52.91
56042;BME280;48756;41.374;2.066;2022-09-09T07:35:50;100957.59;;;25.15;53.50
56042;BME280;48756;41.374;2.066;2022-09-09T07:38:16;100965.19;;;25.33;53.32
56042;BME280;48756;41.374;2.066;2022-09-09T07:40:41;100954.28;;;25.24;53.05
56042;BME280;48756;41.374;2.066;2022-09-09T07:43:07;100961.31;;;24.98;54.39
56042;BME280;48756;41.374;2.066;2022-09-09T07:45:34;100965.06;;;25.22;54.07
56042;BME280;48756;41.374;2.066;2022-09-09T07:48:00;100963.13;;;24.97;54.13
56042;BME280;48756;41.374;2.066;2022-09-09T07:50:26;100966.34;;;25.17;53.70
56042;BME280;48756;41.374;2.066;2022-09-09T07:52:52;100964.63;;;25.16;53.73
56042;BME280;48756;41.374;2.066;2022-09-09T07:55:22;100965.03;;;25.62;53.32
56042;BME280;48756;41.374;2.066;2022-09-09T07:57:52;100966.97;;;25.73;53.45
56042;BME280;48756;41.374;2.066;2022-09-09T08:00:18;100969.00;;;25.69;52.63
56042;BME280;48756;41.374;2.066;2022-09-09T08:02:48;100981.72;;;25.91;52.65
56042;BME280;48756;41.374;2.066;2022-09-09T08:05:14;100979.81;;;25.93;51.66
56042;BME280;48756;41.374;2.066;2022-09-09T08:07:40;100980.13;;;25.88;53.20
56042;BME280;48756;41.374;2.066;2022-09-09T08:10:06;100975.84;;;25.99;51.88
56042;BME280;48756;41.374;2.066;2022-09-09T08:12:31;100980.53;;;26.20;50.89
56042;BME280;48756;41.374;2.066;2022-09-09T08:14:57;100975.63;;;26.52;50.70
56042;BME280;48756;41.374;2.066;2022-09-09T08:17:23;100977.16;;;26.68;50.42
56042;BME280;48756;41.374;2.066;2022-09-09T08:19:49;100974.81;;;27.00;49.87
56042;BME280;48756;41.374;2.066;2022-09-09T08:22:14;100978.63;;;27.08;49.49
56042;BME280;48756;41.374;2.066;2022-09-09T08:24:43;100976.59;;;27.93;48.79
56042;BME280;48756;41.374;2.066;2022-09-09T08:27:08;100985.09;;;27.65;49.95
56042;BME280;48756;41.374;2.066;2022-09-09T08:29:35;100979.56;;;27.31;51.08
56042;BME280;48756;41.374;2.066;2022-09-09T08:32:03;100986.44;;;27.46;52.24
56042;BME280;48756;41.374;2.066;2022-09-09T08:34:28;100992.06;;;27.55;51.13
56042;BME280;48756;41.374;2.066;2022-09-09T08:36:55;100986.38;;;27.24;52.09
56042;BME280;48756;41.374;2.066;2022-09-09T08:39:21;100993.25;;;27.39;52.52
56042;BME280;48756;41.374;2.066;2022-09-09T08:53:24;100991.56;;;27.50;51.08
56042;BME280;48756;41.374;2.066;2022-09-09T08:55:58;100994.50;;;27.58;50.88
56042;BME280;48756;41.374;2.066;2022-09-09T08:58:32;101000.38;;;27.28;52.09
56042;BME280;48756;41.374;2.066;2022-09-09T09:01:02;101002.00;;;27.65;52.04
56042;BME280;48756;41.374;2.066;2022-09-09T09:03:39;101003.63;;;28.01;51.57
56042;BME280;48756;41.374;2.066;2022-09-09T09:11:18;101008.09;;;27.67;52.22
56042;BME280;48756;41.374;2.066;2022-09-09T09:13:58;101008.38;;;27.98;51.71
56042;BME280;48756;41.374;2.066;2022-09-09T09:16:59;101014.09;;;28.04;52.60
56042;BME280;48756;41.374;2.066;2022-09-09T09:19:27;101019.25;;;28.19;53.88
56042;BME280;48756;41.374;2.066;2022-09-09T09:22:03;101026.06;;;28.67;51.11
56042;BME280;48756;41.374;2.066;2022-09-09T09:24:45;101031.91;;;28.73;52.33
56042;BME280;48756;41.374;2.066;2022-09-09T09:30:15;101029.88;;;28.54;52.22
56042;BME280;48756;41.374;2.066;2022-09-09T09:33:04;101030.59;;;28.67;53.15
56042;BME280;48756;41.374;2.066;2022-09-09T09:35:31;101030.91;;;29.07;52.69
56042;BME280;48756;41.374;2.066;2022-09-09T09:37:56;101029.88;;;29.19;52.89
56042;BME280;48756;41.374;2.066;2022-09-09T09:40:22;101027.56;;;29.58;51.88
56042;BME280;48756;41.374;2.066;2022-09-09T09:42:53;101026.19;;;29.84;52.33
56042;BME280;48756;41.374;2.066;2022-09-09T09:45:41;101028.41;;;30.00;51.80
56042;BME280;48756;41.374;2.066;2022-09-09T09:48:11;101025.06;;;30.29;50.45
56042;BME280;48756;41.374;2.066;2022-09-09T09:50:55;101020.56;;;30.08;51.33
56042;BME280;48756;41.374;2.066;2022-09-09T09:53:30;101019.19;;;30.85;51.07
56042;BME280;48756;41.374;2.066;2022-09-09T09:56:27;101004.19;;;30.82;50.31
56042;BME280;48756;41.374;2.066;2022-09-09T09:58:58;101022.47;;;30.88;50.31
56042;BME280;48756;41.374;2.066;2022-09-09T10:01:28;101017.03;;;30.08;52.68
56042;BME280;48756;41.374;2.066;2022-09-09T10:04:40;101026.50;;;30.63;52.02
56042;BME280;48756;41.374;2.066;2022-09-09T10:06:49;101020.84;;;30.66;52.00
56042;BME280;48756;41.374;2.066;2022-09-09T10:15:07;101015.91;;;30.41;52.25
56042;BME280;48756;41.374;2.066;2022-09-09T10:20:50;101013.09;;;30.42;52.85
56042;BME280;48756;41.374;2.066;2022-09-09T10:23:35;101013.59;;;30.57;53.17
56042;BME280;48756;41.374;2.066;2022-09-09T10:34:12;101013.44;;;31.08;54.20
56042;BME280;48756;41.374;2.066;2022-09-09T10:36:45;101007.06;;;31.09;53.06
56042;BME280;48756;41.374;2.066;2022-09-09T10:39:36;101004.25;;;31.30;53.41
56042;BME280;48756;41.374;2.066;2022-09-09T10:42:08;101024.66;;;30.64;55.11
56042;BME280;48756;41.374;2.066;2022-09-09T10:50:35;101017.41;;;30.24;58.59
56042;BME280;48756;41.374;2.066;2022-09-09T10:53:15;101020.84;;;30.05;61.01
56042;BME280;48756;41.374;2.066;2022-09-09T10:55:49;101012.66;;;30.68;57.69
56042;BME280;48756;41.374;2.066;2022-09-09T10:58:30;101016.66;;;30.93;56.58
56042;BME280;48756;41.374;2.066;2022-09-09T11:01:03;101012.00;;;30.95;57.02
56042;BME280;48756;41.374;2.066;2022-09-09T11:03:33;101012.91;;;30.65;58.36
56042;BME280;48756;41.374;2.066;2022-09-09T11:06:09;101007.97;;;30.70;57.57
56042;BME280;48756;41.374;2.066;2022-09-09T11:08:38;101009.00;;;29.66;60.99
56042;BME280;48756;41.374;2.066;2022-09-09T11:11:14;101009.06;;;29.44;62.24
56042;BME280;48756;41.374;2.066;2022-09-09T11:19:33;100995.72;;;31.16;56.37
56042;BME280;48756;41.374;2.066;2022-09-09T11:22:08;101000.66;;;31.88;54.96
56042;BME280;48756;41.374;2.066;2022-09-09T11:24:54;101001.34;;;31.99;53.07
56042;BME280;48756;41.374;2.066;2022-09-09T11:30:15;100999.81;;;31.00;53.85
56042;BME280;48756;41.374;2.066;2022-09-09T11:35:48;101000.13;;;31.07;54.67
56042;BME280;48756;41.374;2.066;2022-09-09T11:38:25;101001.75;;;30.69;54.71
56042;BME280;48756;41.374;2.066;2022-09-09T11:41:02;101011.19;;;30.03;56.37
56042;BME280;48756;41.374;2.066;2022-09-09T11:43:39;101001.84;;;30.28;56.35
56042;BME280;48756;41.374;2.066;2022-09-09T11:46:06;101008.22;;;30.57;55.96
56042;BME280;48756;41.374;2.066;2022-09-09T11:48:40;101007.22;;;30.28;57.24
56042;BME280;48756;41.374;2.066;2022-09-09T11:51:31;100992.31;;;30.94;54.46
56042;BME280;48756;41.374;2.066;2022-09-09T11:54:02;100993.00;;;30.87;53.71
56042;BME280;48756;41.374;2.066;2022-09-09T11:56:46;101000.66;;;30.41;55.70
56042;BME280;48756;41.374;2.066;2022-09-09T11:59:26;101016.13;;;29.77;56.66
56042;BME280;48756;41.374;2.066;2022-09-09T12:01:57;101016.50;;;29.72;56.49
56042;BME280;48756;41.374;2.066;2022-09-09T12:04:30;101010.59;;;29.57;57.23
56042;BME280;48756;41.374;2.066;2022-09-09T12:12:31;101010.81;;;29.66;56.75
56042;BME280;48756;41.374;2.066;2022-09-09T12:17:24;101003.38;;;28.94;60.92
56042;BME280;48756;41.374;2.066;2022-09-09T12:20:02;101008.78;;;29.58;58.90
56042;BME280;48756;41.374;2.066;2022-09-09T12:27:36;101009.25;;;30.75;53.89
56042;BME280;48756;41.374;2.066;2022-09-09T12:30:12;101010.28;;;30.94;53.26
56042;BME280;48756;41.374;2.066;2022-09-09T12:32:40;101021.84;;;30.65;53.39
56042;BME280;48756;41.374;2.066;2022-09-09T12:35:12;101003.84;;;31.25;52.65
56042;BME280;48756;41.374;2.066;2022-09-09T12:37:44;100996.25;;;30.90;52.94
56042;BME280;48756;41.374;2.066;2022-09-09T12:40:23;101002.34;;;31.98;51.25
56042;BME280;48756;41.374;2.066;2022-09-09T12:42:49;101000.25;;;32.39;49.41
56042;BME280;48756;41.374;2.066;2022-09-09T12:45:20;100992.69;;;32.06;54.03
56042;BME280;48756;41.374;2.066;2022-09-09T12:50:17;100993.56;;;30.81;53.91
56042;BME280;48756;41.374;2.066;2022-09-09T12:52:44;100995.97;;;30.43;55.81
56042;BME280;48756;41.374;2.066;2022-09-09T12:55:16;100972.44;;;30.76;53.53
56042;BME280;48756;41.374;2.066;2022-09-09T12:57:43;100997.31;;;29.77;56.99
56042;BME280;48756;41.374;2.066;2022-09-09T13:00:18;100994.59;;;30.18;55.92
56042;BME280;48756;41.374;2.066;2022-09-09T13:02:53;100997.69;;;30.14;56.44
56042;BME280;48756;41.374;2.066;2022-09-09T13:07:49;100986.91;;;30.94;54.28
56042;BME280;48756;41.374;2.066;2022-09-09T13:10:23;100982.44;;;31.33;52.10
56042;BME280;48756;41.374;2.066;2022-09-09T13:12:52;100985.81;;;31.45;52.25
56042;BME280;48756;41.374;2.066;2022-09-09T13:15:23;100985.41;;;31.40;51.93
56042;BME280;48756;41.374;2.066;2022-09-09T13:17:55;100993.84;;;30.87;53.76
56042;BME280;48756;41.374;2.066;2022-09-09T13:20:22;100984.81;;;31.07;52.55
56042;BME280;48756;41.374;2.066;2022-09-09T13:22:49;100998.31;;;30.27;55.12
56042;BME280;48756;41.374;2.066;2022-09-09T13:28:04;101000.38;;;29.93;56.86
56042;BME280;48756;41.374;2.066;2022-09-09T13:30:36;100991.59;;;30.42;55.45
56042;BME280;48756;41.374;2.066;2022-09-09T13:36:09;100982.16;;;31.27;52.94
56042;BME280;48756;41.374;2.066;2022-09-09T13:38:52;100977.84;;;30.86;54.15
56042;BME280;48756;41.374;2.066;2022-09-09T13:41:23;100985.50;;;30.40;55.37
56042;BME280;48756;41.374;2.066;2022-09-09T13:43:50;100995.00;;;30.44;56.16
56042;BME280;48756;41.374;2.066;2022-09-09T13:46:36;100992.06;;;30.17;55.94
56042;BME280;48756;41.374;2.066;2022-09-09T13:51:40;100990.53;;;30.24;54.81
56042;BME280;48756;41.374;2.066;2022-09-09T13:54:06;100990.69;;;29.81;57.29
56042;BME280;48756;41.374;2.066;2022-09-09T13:56:35;100992.00;;;30.38;55.87
56042;BME280;48756;41.374;2.066;2022-09-09T13:59:02;100983.34;;;30.65;53.92
56042;BME280;48756;41.374;2.066;2022-09-09T14:01:28;100985.72;;;29.55;57.35
56042;BME280;48756;41.374;2.066;2022-09-09T14:03:54;100990.50;;;29.41;58.55
56042;BME280;48756;41.374;2.066;2022-09-09T14:06:20;100984.16;;;29.53;57.96
56042;BME280;48756;41.374;2.066;2022-09-09T14:08:48;100984.69;;;29.68;57.51
56042;BME280;48756;41.374;2.066;2022-09-09T14:11:14;100984.34;;;30.33;55.45
56042;BME280;48756;41.374;2.066;2022-09-09T14:13:40;100979.66;;;29.84;55.76
56042;BME280;48756;41.374;2.066;2022-09-09T14:16:06;100972.47;;;29.84;55.83
56042;BME280;48756;41.374;2.066;2022-09-09T14:18:31;100970.00;;;29.51;57.36
56042;BME280;48756;41.374;2.066;2022-09-09T14:20:57;100973.66;;;29.50;57.88
56042;BME280;48756;41.374;2.066;2022-09-09T14:23:23;100978.34;;;29.37;57.21
56042;BME280;48756;41.374;2.066;2022-09-09T14:25:49;100985.56;;;29.04;58.04
56042;BME280;48756;41.374;2.066;2022-09-09T14:28:15;100982.91;;;29.25;58.01
56042;BME280;48756;41.374;2.066;2022-09-09T14:30:42;100992.66;;;28.72;59.73
56042;BME280;48756;41.374;2.066;2022-09-09T14:33:11;100992.91;;;28.91;58.71
56042;BME280;48756;41.374;2.066;2022-09-09T14:35:37;100985.97;;;28.66;60.15
56042;BME280;48756;41.374;2.066;2022-09-09T14:38:04;100983.28;;;28.88;59.08
56042;BME280;48756;41.374;2.066;2022-09-09T14:40:30;100999.97;;;28.92;58.66
56042;BME280;48756;41.374;2.066;2022-09-09T14:42:56;101003.66;;;28.68;59.56
56042;BME280;48756;41.374;2.066;2022-09-09T14:45:25;101017.97;;;29.12;58.41
56042;BME280;48756;41.374;2.066;2022-09-09T14:47:52;101015.78;;;29.06;58.55
56042;BME280;48756;41.374;2.066;2022-09-09T14:50:19;101022.84;;;29.39;57.12
56042;BME280;48756;41.374;2.066;2022-09-09T14:52:44;101020.06;;;29.09;58.05
56042;BME280;48756;41.374;2.066;2022-09-09T14:55:10;101014.16;;;29.26;57.92
56042;BME280;48756;41.374;2.066;2022-09-09T14:57:36;100995.50;;;29.24;56.81
56042;BME280;48756;41.374;2.066;2022-09-09T15:00:03;100998.47;;;29.10;57.53
56042;BME280;48756;41.374;2.066;2022-09-09T15:02:30;100998.53;;;28.88;58.25
56042;BME280;48756;41.374;2.066;2022-09-09T15:04:56;101014.91;;;28.40;59.68
56042;BME280;48756;41.374;2.066;2022-09-09T15:07:25;101017.56;;;28.29;60.13
56042;BME280;48756;41.374;2.066;2022-09-09T15:09:50;101020.94;;;28.20;60.07
56042;BME280;48756;41.374;2.066;2022-09-09T15:12:18;101029.19;;;27.94;61.32
56042;BME280;48756;41.374;2.066;2022-09-09T15:14:44;101021.50;;;27.55;61.93
56042;BME280;48756;41.374;2.066;2022-09-09T15:17:11;101023.19;;;27.80;62.29